sensor_id;sensor_type;location;lat;lon;timestamp;temperature;humidity
25024;DHT22;13033;50.936;5.334;2022-12-10T00:01:51;1.40;99.90
25024;DHT22;13033;50.936;5.334;2022-12-10T00:04:18;1.30;99.90
25024;DHT22;13033;50.936;5.334;2022-12-10T00:06:44;1.10;99.90
25024;DHT22;13033;50.936;5.334;2022-12-10T00:09:15;1.20;99.90
25024;DHT22;13033;50.936;5.334;2022-12-10T00:11:41;1.30;99.90
25024;DHT22;13033;50.936;5.334;2022-12-10T00:14:07;1.10;99.90
25024;DHT22;13033;50.936;5.334;2022-12-10T00:16:34;1.00;99.90
25024;DHT22;13033;50.936;5.334;2022-12-10T00:19:00;1.00;99.90
25024;DHT22;13033;50.936;5.334;2022-12-10T00:21:29;0.80;99.90
25024;DHT22;13033;50.936;5.334;2022-12-10T00:23:55;0.70;99.90
25024;DHT22;13033;50.936;5.334;2022-12-10T00:26:26;0.70;99.90
25024;DHT22;13033;50.936;5.334;2022-12-10T00:28:53;0.80;99.90
25024;DHT22;13033;50.936;5.334;2022-12-10T00:31:21;1.00;99.90
25024;DHT22;13033;50.936;5.334;2022-12-10T00:33:48;1.00;99.90
25024;DHT22;13033;50.936;5.334;2022-12-10T00:38:42;1.20;99.90
25024;DHT22;13033;50.936;5.334;2022-12-10T00:41:08;1.40;99.90
25024;DHT22;13033;50.936;5.334;2022-12-10T00:43:34;1.40;99.90
25024;DHT22;13033;50.936;5.334;2022-12-10T00:45:59;1.50;99.90
25024;DHT22;13033;50.936;5.334;2022-12-10T00:48:25;1.30;99.90
25024;DHT22;13033;50.936;5.334;2022-12-10T00:53:32;1.20;99.90
25024;DHT22;13033;50.936;5.334;2022-12-10T00:55:58;1.30;99.90
25024;DHT22;13033;50.936;5.334;2022-12-10T00:58:28;1.70;99.90
25024;DHT22;13033;50.936;5.334;2022-12-10T01:00:54;1.70;99.90
25024;DHT22;13033;50.936;5.334;2022-12-10T01:03:20;1.80;99.90
25024;DHT22;13033;50.936;5.334;2022-12-10T01:05:46;1.80;99.90
25024;DHT22;13033;50.936;5.334;2022-12-10T01:08:11;1.90;99.90
25024;DHT22;13033;50.936;5.334;2022-12-10T01:10:37;1.90;99.90
25024;DHT22;13033;50.936;5.334;2022-12-10T01:13:03;1.80;99.90
25024;DHT22;13033;50.936;5.334;2022-12-10T01:15:29;1.60;99.90
25024;DHT22;13033;50.936;5.334;2022-12-10T01:17:55;1.70;99.90
25024;DHT22;13033;50.936;5.334;2022-12-10T01:20:20;1.90;99.90
25024;DHT22;13033;50.936;5.334;2022-12-10T01:22:46;1.80;99.90
25024;DHT22;13033;50.936;5.334;2022-12-10T01:25:12;1.80;99.90
25024;DHT22;13033;50.936;5.334;2022-12-10T01:27:37;1.80;99.90
25024;DHT22;13033;50.936;5.334;2022-12-10T01:30:03;1.80;99.90
25024;DHT22;13033;50.936;5.334;2022-12-10T01:32:29;1.80;99.90
25024;DHT22;13033;50.936;5.334;2022-12-10T01:34:55;1.60;99.90
25024;DHT22;13033;50.936;5.334;2022-12-10T01:37:20;1.60;99.90
25024;DHT22;13033;50.936;5.334;2022-12-10T01:39:46;1.40;99.90
25024;DHT22;13033;50.936;5.334;2022-12-10T01:42:13;1.40;99.90
25024;DHT22;13033;50.936;5.334;2022-12-10T01:47:07;1.30;99.90
25024;DHT22;13033;50.936;5.334;2022-12-10T01:49:39;1.40;99.90
25024;DHT22;13033;50.936;5.334;2022-12-10T01:52:07;1.50;99.90
25024;DHT22;13033;50.936;5.334;2022-12-10T01:54:36;1.70;99.90
25024;DHT22;13033;50.936;5.334;2022-12-10T01:57:06;1.80;99.90
25024;DHT22;13033;50.936;5.334;2022-12-10T01:59:33;1.80;99.90
25024;DHT22;13033;50.936;5.334;2022-12-10T02:15:13;1.20;99.90
25024;DHT22;13033;50.936;5.334;2022-12-10T02:17:50;1.20;99.90
25024;DHT22;13033;50.936;5.334;2022-12-10T02:20:24;1.40;99.90
25024;DHT22;13033;50.936;5.334;2022-12-10T02:22:57;1.50;99.90
25024;DHT22;13033;50.936;5.334;2022-12-10T02:25:40;1.60;99.90
25024;DHT22;13033;50.936;5.334;2022-12-10T02:30:42;1.40;99.90
25024;DHT22;13033;50.936;5.334;2022-12-10T02:33:10;1.70;99.90
25024;DHT22;13033;50.936;5.334;2022-12-10T02:35:37;1.60;99.90
25024;DHT22;13033;50.936;5.334;2022-12-10T02:38:45;1.40;99.90
25024;DHT22;13033;50.936;5.334;2022-12-10T02:41:17;1.30;99.90
25024;DHT22;13033;50.936;5.334;2022-12-10T02:43:45;1.10;99.90
25024;DHT22;13033;50.936;5.334;2022-12-10T02:46:13;1.20;99.90
25024;DHT22;13033;50.936;5.334;2022-12-10T02:48:39;1.50;99.90
25024;DHT22;13033;50.936;5.334;2022-12-10T02:51:05;1.70;99.90
25024;DHT22;13033;50.936;5.334;2022-12-10T02:53:31;1.80;99.90
25024;DHT22;13033;50.936;5.334;2022-12-10T02:59:23;1.30;99.90
25024;DHT22;13033;50.936;5.334;2022-12-10T03:01:56;1.30;99.90
25024;DHT22;13033;50.936;5.334;2022-12-10T03:05:11;1.20;99.90
25024;DHT22;13033;50.936;5.334;2022-12-10T03:07:22;1.20;99.90
25024;DHT22;13033;50.936;5.334;2022-12-10T03:09:58;1.10;99.90
25024;DHT22;13033;50.936;5.334;2022-12-10T03:12:29;1.50;99.90
25024;DHT22;13033;50.936;5.334;2022-12-10T03:14:59;1.70;99.90
25024;DHT22;13033;50.936;5.334;2022-12-10T03:17:27;1.60;99.90
25024;DHT22;13033;50.936;5.334;2022-12-10T03:19:55;1.50;99.90
25024;DHT22;13033;50.936;5.334;2022-12-10T03:22:22;1.70;99.90
25024;DHT22;13033;50.936;5.334;2022-12-10T03:24:48;1.60;99.90
25024;DHT22;13033;50.936;5.334;2022-12-10T03:27:15;1.70;99.90
25024;DHT22;13033;50.936;5.334;2022-12-10T03:29:47;1.70;99.90
25024;DHT22;13033;50.936;5.334;2022-12-10T03:32:14;1.40;99.90
25024;DHT22;13033;50.936;5.334;2022-12-10T03:34:42;1.20;99.90
25024;DHT22;13033;50.936;5.334;2022-12-10T03:37:09;1.30;99.90
25024;DHT22;13033;50.936;5.334;2022-12-10T03:39:36;1.30;99.90
25024;DHT22;13033;50.936;5.334;2022-12-10T03:42:03;1.40;99.90
25024;DHT22;13033;50.936;5.334;2022-12-10T03:44:34;1.70;99.90
25024;DHT22;13033;50.936;5.334;2022-12-10T03:47:02;1.70;99.90
25024;DHT22;13033;50.936;5.334;2022-12-10T03:49:28;1.70;99.90
25024;DHT22;13033;50.936;5.334;2022-12-10T03:51:54;1.60;99.90
25024;DHT22;13033;50.936;5.334;2022-12-10T03:54:21;1.60;99.90
25024;DHT22;13033;50.936;5.334;2022-12-10T03:56:47;1.50;99.90
25024;DHT22;13033;50.936;5.334;2022-12-10T03:59:12;1.40;99.90
25024;DHT22;13033;50.936;5.334;2022-12-10T04:01:38;1.30;99.90
25024;DHT22;13033;50.936;5.334;2022-12-10T04:04:04;1.30;99.90
25024;DHT22;13033;50.936;5.334;2022-12-10T04:06:30;1.40;99.90
25024;DHT22;13033;50.936;5.334;2022-12-10T04:08:56;1.40;99.90
25024;DHT22;13033;50.936;5.334;2022-12-10T04:11:22;1.50;99.90
25024;DHT22;13033;50.936;5.334;2022-12-10T04:13:48;1.40;99.90
25024;DHT22;13033;50.936;5.334;2022-12-10T04:16:33;1.60;99.90
25024;DHT22;13033;50.936;5.334;2022-12-10T04:19:11;1.50;99.90
25024;DHT22;13033;50.936;5.334;2022-12-10T04:21:39;1.70;99.90
25024;DHT22;13033;50.936;5.334;2022-12-10T04:24:26;1.60;99.90
25024;DHT22;13033;50.936;5.334;2022-12-10T04:27:13;1.30;99.90
25024;DHT22;13033;50.936;5.334;2022-12-10T04:29:41;1.20;99.90
25024;DHT22;13033;50.936;5.334;2022-12-10T04:32:07;1.30;99.90
25024;DHT22;13033;50.936;5.334;2022-12-10T04:34:32;1.20;99.90
25024;DHT22;13033;50.936;5.334;2022-12-10T04:36:59;1.20;99.90
25024;DHT22;13033;50.936;5.334;2022-12-10T04:39:25;1.40;99.90
25024;DHT22;13033;50.936;5.334;2022-12-10T04:41:51;1.40;99.90
25024;DHT22;13033;50.936;5.334;2022-12-10T04:44:17;1.30;99.90
25024;DHT22;13033;50.936;5.334;2022-12-10T04:46:44;1.50;99.90
25024;DHT22;13033;50.936;5.334;2022-12-10T04:49:10;1.50;99.90
25024;DHT22;13033;50.936;5.334;2022-12-10T04:51:36;1.40;99.90
25024;DHT22;13033;50.936;5.334;2022-12-10T04:54:02;1.30;99.90
25024;DHT22;13033;50.936;5.334;2022-12-10T04:56:28;1.30;99.90
25024;DHT22;13033;50.936;5.334;2022-12-10T04:58:56;1.20;99.90
25024;DHT22;13033;50.936;5.334;2022-12-10T05:01:21;1.10;99.90
25024;DHT22;13033;50.936;5.334;2022-12-10T05:03:47;1.20;99.90
25024;DHT22;13033;50.936;5.334;2022-12-10T05:06:15;1.00;99.90
25024;DHT22;13033;50.936;5.334;2022-12-10T05:08:41;1.20;99.90
25024;DHT22;13033;50.936;5.334;2022-12-10T05:11:10;1.10;99.90
25024;DHT22;13033;50.936;5.334;2022-12-10T05:13:36;1.30;99.90
25024;DHT22;13033;50.936;5.334;2022-12-10T05:16:03;1.10;99.90
25024;DHT22;13033;50.936;5.334;2022-12-10T05:18:30;1.10;99.90
25024;DHT22;13033;50.936;5.334;2022-12-10T05:20:58;1.20;99.90
25024;DHT22;13033;50.936;5.334;2022-12-10T05:23:24;1.20;99.90
25024;DHT22;13033;50.936;5.334;2022-12-10T05:26:06;1.10;99.90
25024;DHT22;13033;50.936;5.334;2022-12-10T05:28:35;1.40;99.90
25024;DHT22;13033;50.936;5.334;2022-12-10T05:31:01;1.40;99.90
25024;DHT22;13033;50.936;5.334;2022-12-10T05:33:27;1.30;99.90
25024;DHT22;13033;50.936;5.334;2022-12-10T05:36:01;1.70;99.90
25024;DHT22;13033;50.936;5.334;2022-12-10T05:38:28;1.70;99.90
25024;DHT22;13033;50.936;5.334;2022-12-10T05:40:55;1.70;99.90
25024;DHT22;13033;50.936;5.334;2022-12-10T05:43:20;1.80;99.90
25024;DHT22;13033;50.936;5.334;2022-12-10T05:45:47;1.70;99.90
25024;DHT22;13033;50.936;5.334;2022-12-10T05:48:14;1.50;99.90
25024;DHT22;13033;50.936;5.334;2022-12-10T05:50:40;1.30;99.90
25024;DHT22;13033;50.936;5.334;2022-12-10T05:53:07;1.30;99.90
25024;DHT22;13033;50.936;5.334;2022-12-10T05:55:32;1.50;99.90
25024;DHT22;13033;50.936;5.334;2022-12-10T05:57:59;1.20;99.90
25024;DHT22;13033;50.936;5.334;2022-12-10T06:00:26;1.10;99.90
25024;DHT22;13033;50.936;5.334;2022-12-10T06:02:52;1.20;99.90
25024;DHT22;13033;50.936;5.334;2022-12-10T06:05:18;1.20;99.90
25024;DHT22;13033;50.936;5.334;2022-12-10T06:07:44;1.20;99.90
25024;DHT22;13033;50.936;5.334;2022-12-10T06:10:10;1.10;99.90
25024;DHT22;13033;50.936;5.334;2022-12-10T06:12:36;1.00;99.90
25024;DHT22;13033;50.936;5.334;2022-12-10T06:15:03;0.90;99.90
25024;DHT22;13033;50.936;5.334;2022-12-10T06:17:29;1.00;99.90
25024;DHT22;13033;50.936;5.334;2022-12-10T06:19:55;1.00;99.90
25024;DHT22;13033;50.936;5.334;2022-12-10T06:22:20;1.00;99.90
25024;DHT22;13033;50.936;5.334;2022-12-10T06:24:46;1.10;99.90
25024;DHT22;13033;50.936;5.334;2022-12-10T06:27:11;1.10;99.90
25024;DHT22;13033;50.936;5.334;2022-12-10T06:29:37;1.10;99.90
25024;DHT22;13033;50.936;5.334;2022-12-10T06:32:03;1.10;99.90
25024;DHT22;13033;50.936;5.334;2022-12-10T06:34:29;1.10;99.90
25024;DHT22;13033;50.936;5.334;2022-12-10T06:36:54;1.20;99.90
25024;DHT22;13033;50.936;5.334;2022-12-10T06:39:20;1.40;99.90
25024;DHT22;13033;50.936;5.334;2022-12-10T06:41:45;1.20;99.90
25024;DHT22;13033;50.936;5.334;2022-12-10T06:44:12;1.10;99.90
25024;DHT22;13033;50.936;5.334;2022-12-10T06:46:39;1.10;99.90
25024;DHT22;13033;50.936;5.334;2022-12-10T06:49:06;1.10;99.90
25024;DHT22;13033;50.936;5.334;2022-12-10T06:51:32;1.20;99.90
25024;DHT22;13033;50.936;5.334;2022-12-10T06:53:57;1.30;99.90
25024;DHT22;13033;50.936;5.334;2022-12-10T06:56:23;1.50;99.90
25024;DHT22;13033;50.936;5.334;2022-12-10T06:58:49;1.40;99.90
25024;DHT22;13033;50.936;5.334;2022-12-10T07:01:16;1.30;99.90
25024;DHT22;13033;50.936;5.334;2022-12-10T07:03:43;1.20;99.90
25024;DHT22;13033;50.936;5.334;2022-12-10T07:06:10;1.20;99.90
25024;DHT22;13033;50.936;5.334;2022-12-10T07:08:36;1.50;99.90
25024;DHT22;13033;50.936;5.334;2022-12-10T07:11:07;1.50;99.90
25024;DHT22;13033;50.936;5.334;2022-12-10T07:13:33;1.50;99.90
25024;DHT22;13033;50.936;5.334;2022-12-10T07:15:59;1.50;99.90
25024;DHT22;13033;50.936;5.334;2022-12-10T07:18:25;1.50;99.90
25024;DHT22;13033;50.936;5.334;2022-12-10T07:20:51;1.60;99.90
25024;DHT22;13033;50.936;5.334;2022-12-10T07:23:17;1.30;99.90
25024;DHT22;13033;50.936;5.334;2022-12-10T07:25:42;1.30;99.90
25024;DHT22;13033;50.936;5.334;2022-12-10T07:28:08;1.40;99.90
25024;DHT22;13033;50.936;5.334;2022-12-10T07:30:34;1.40;99.90
25024;DHT22;13033;50.936;5.334;2022-12-10T07:32:59;1.30;99.90
25024;DHT22;13033;50.936;5.334;2022-12-10T07:35:25;1.50;99.90
25024;DHT22;13033;50.936;5.334;2022-12-10T07:37:51;1.30;99.90
25024;DHT22;13033;50.936;5.334;2022-12-10T07:40:16;1.30;99.90
25024;DHT22;13033;50.936;5.334;2022-12-10T07:42:42;1.40;99.90
25024;DHT22;13033;50.936;5.334;2022-12-10T07:45:08;1.50;99.90
25024;DHT22;13033;50.936;5.334;2022-12-10T07:47:36;1.80;99.90
25024;DHT22;13033;50.936;5.334;2022-12-10T07:50:02;1.70;99.90
25024;DHT22;13033;50.936;5.334;2022-12-10T07:52:28;1.30;99.90
25024;DHT22;13033;50.936;5.334;2022-12-10T07:54:54;1.20;99.90
25024;DHT22;13033;50.936;5.334;2022-12-10T07:57:19;1.20;99.90
25024;DHT22;13033;50.936;5.334;2022-12-10T07:59:45;1.30;99.90
25024;DHT22;13033;50.936;5.334;2022-12-10T08:02:12;1.30;99.90
25024;DHT22;13033;50.936;5.334;2022-12-10T08:04:37;1.30;99.90
25024;DHT22;13033;50.936;5.334;2022-12-10T08:07:03;1.40;99.90
25024;DHT22;13033;50.936;5.334;2022-12-10T08:09:29;1.40;99.90
25024;DHT22;13033;50.936;5.334;2022-12-10T08:11:54;1.40;99.90
25024;DHT22;13033;50.936;5.334;2022-12-10T08:14:20;1.50;99.90
25024;DHT22;13033;50.936;5.334;2022-12-10T08:16:45;1.60;99.90
25024;DHT22;13033;50.936;5.334;2022-12-10T08:19:11;1.50;99.90
25024;DHT22;13033;50.936;5.334;2022-12-10T08:21:37;1.20;99.90
25024;DHT22;13033;50.936;5.334;2022-12-10T08:24:03;1.10;99.90
25024;DHT22;13033;50.936;5.334;2022-12-10T08:26:30;1.00;99.90
25024;DHT22;13033;50.936;5.334;2022-12-10T08:28:57;1.10;99.90
25024;DHT22;13033;50.936;5.334;2022-12-10T08:31:24;1.20;99.90
25024;DHT22;13033;50.936;5.334;2022-12-10T08:33:50;1.40;99.90
25024;DHT22;13033;50.936;5.334;2022-12-10T08:36:17;1.20;99.90
25024;DHT22;13033;50.936;5.334;2022-12-10T08:38:44;1.40;99.90
25024;DHT22;13033;50.936;5.334;2022-12-10T08:41:12;1.50;99.90
25024;DHT22;13033;50.936;5.334;2022-12-10T08:43:39;1.10;99.90
25024;DHT22;13033;50.936;5.334;2022-12-10T08:46:04;0.90;99.90
25024;DHT22;13033;50.936;5.334;2022-12-10T08:48:31;0.80;99.90
25024;DHT22;13033;50.936;5.334;2022-12-10T08:50:57;0.90;99.90
25024;DHT22;13033;50.936;5.334;2022-12-10T08:53:23;0.90;99.90
25024;DHT22;13033;50.936;5.334;2022-12-10T08:55:52;1.00;99.90
25024;DHT22;13033;50.936;5.334;2022-12-10T08:58:19;1.10;99.90
25024;DHT22;13033;50.936;5.334;2022-12-10T09:00:45;1.30;99.90
25024;DHT22;13033;50.936;5.334;2022-12-10T09:03:11;1.40;99.90
25024;DHT22;13033;50.936;5.334;2022-12-10T09:05:37;1.30;99.90
25024;DHT22;13033;50.936;5.334;2022-12-10T09:08:03;1.30;99.90
25024;DHT22;13033;50.936;5.334;2022-12-10T09:10:29;1.20;99.90
25024;DHT22;13033;50.936;5.334;2022-12-10T09:12:55;1.10;99.90
25024;DHT22;13033;50.936;5.334;2022-12-10T09:15:20;1.00;99.90
25024;DHT22;13033;50.936;5.334;2022-12-10T09:17:46;0.90;99.90
25024;DHT22;13033;50.936;5.334;2022-12-10T09:20:12;1.00;99.90
25024;DHT22;13033;50.936;5.334;2022-12-10T09:22:38;1.20;99.90
25024;DHT22;13033;50.936;5.334;2022-12-10T09:25:08;1.10;99.90
25024;DHT22;13033;50.936;5.334;2022-12-10T09:27:39;0.90;99.90
25024;DHT22;13033;50.936;5.334;2022-12-10T09:30:05;0.80;99.90
25024;DHT22;13033;50.936;5.334;2022-12-10T09:32:31;0.90;99.90
25024;DHT22;13033;50.936;5.334;2022-12-10T09:34:57;0.90;99.90
25024;DHT22;13033;50.936;5.334;2022-12-10T09:37:22;1.00;99.90
25024;DHT22;13033;50.936;5.334;2022-12-10T09:39:48;1.10;99.90
25024;DHT22;13033;50.936;5.334;2022-12-10T09:51:35;1.20;99.90
25024;DHT22;13033;50.936;5.334;2022-12-10T09:54:25;1.10;99.90
25024;DHT22;13033;50.936;5.334;2022-12-10T09:56:51;1.10;99.90
25024;DHT22;13033;50.936;5.334;2022-12-10T09:59:24;1.30;99.90
25024;DHT22;13033;50.936;5.334;2022-12-10T10:02:30;1.40;99.90
25024;DHT22;13033;50.936;5.334;2022-12-10T10:07:39;1.20;99.90
25024;DHT22;13033;50.936;5.334;2022-12-10T10:10:35;1.10;99.90
25024;DHT22;13033;50.936;5.334;2022-12-10T10:13:12;1.20;99.90
25024;DHT22;13033;50.936;5.334;2022-12-10T10:15:42;1.00;99.90
25024;DHT22;13033;50.936;5.334;2022-12-10T10:18:33;1.30;99.90
25024;DHT22;13033;50.936;5.334;2022-12-10T10:21:03;1.20;99.90
25024;DHT22;13033;50.936;5.334;2022-12-10T10:23:30;1.30;99.90
25024;DHT22;13033;50.936;5.334;2022-12-10T10:25:56;1.30;99.90
25024;DHT22;13033;50.936;5.334;2022-12-10T10:28:23;1.10;99.90
25024;DHT22;13033;50.936;5.334;2022-12-10T10:30:50;1.00;99.90
25024;DHT22;13033;50.936;5.334;2022-12-10T10:33:17;1.10;99.90
25024;DHT22;13033;50.936;5.334;2022-12-10T10:35:46;1.20;99.90
25024;DHT22;13033;50.936;5.334;2022-12-10T10:40:46;1.20;99.90
25024;DHT22;13033;50.936;5.334;2022-12-10T10:43:42;1.30;99.90
25024;DHT22;13033;50.936;5.334;2022-12-10T10:46:16;1.40;99.90
25024;DHT22;13033;50.936;5.334;2022-12-10T10:48:43;1.70;99.90
25024;DHT22;13033;50.936;5.334;2022-12-10T10:53:52;1.70;99.90
25024;DHT22;13033;50.936;5.334;2022-12-10T10:56:24;1.70;99.90
25024;DHT22;13033;50.936;5.334;2022-12-10T11:01:54;1.50;99.90
25024;DHT22;13033;50.936;5.334;2022-12-10T11:07:02;1.60;99.90
25024;DHT22;13033;50.936;5.334;2022-12-10T11:09:30;1.60;99.90
25024;DHT22;13033;50.936;5.334;2022-12-10T11:12:21;1.30;99.90
25024;DHT22;13033;50.936;5.334;2022-12-10T11:14:48;1.50;99.90
25024;DHT22;13033;50.936;5.334;2022-12-10T11:17:20;1.30;99.90
25024;DHT22;13033;50.936;5.334;2022-12-10T11:22:30;1.40;99.90
25024;DHT22;13033;50.936;5.334;2022-12-10T11:24:57;1.30;99.90
25024;DHT22;13033;50.936;5.334;2022-12-10T11:27:57;1.50;99.90
25024;DHT22;13033;50.936;5.334;2022-12-10T11:30:23;1.50;99.90
25024;DHT22;13033;50.936;5.334;2022-12-10T11:35:48;1.80;99.90
25024;DHT22;13033;50.936;5.334;2022-12-10T11:38:29;1.90;99.90
25024;DHT22;13033;50.936;5.334;2022-12-10T11:41:24;1.80;99.90
25024;DHT22;13033;50.936;5.334;2022-12-10T11:44:12;1.70;99.90
25024;DHT22;13033;50.936;5.334;2022-12-10T11:57:50;2.00;99.90
25024;DHT22;13033;50.936;5.334;2022-12-10T12:00:39;2.00;99.90
25024;DHT22;13033;50.936;5.334;2022-12-10T12:03:45;2.00;99.90
25024;DHT22;13033;50.936;5.334;2022-12-10T12:12:14;2.10;99.90
25024;DHT22;13033;50.936;5.334;2022-12-10T12:14:48;2.20;99.90
25024;DHT22;13033;50.936;5.334;2022-12-10T12:17:19;1.90;99.90
25024;DHT22;13033;50.936;5.334;2022-12-10T12:19:50;1.70;99.90
25024;DHT22;13033;50.936;5.334;2022-12-10T12:22:28;1.80;99.90
25024;DHT22;13033;50.936;5.334;2022-12-10T12:24:58;1.90;99.90
25024;DHT22;13033;50.936;5.334;2022-12-10T12:27:35;2.10;99.90
25024;DHT22;13033;50.936;5.334;2022-12-10T12:30:10;2.10;99.90
25024;DHT22;13033;50.936;5.334;2022-12-10T12:35:35;2.00;99.90
25024;DHT22;13033;50.936;5.334;2022-12-10T12:46:00;1.80;99.90
25024;DHT22;13033;50.936;5.334;2022-12-10T12:51:06;1.60;99.90
25024;DHT22;13033;50.936;5.334;2022-12-10T12:53:34;1.70;99.90
25024;DHT22;13033;50.936;5.334;2022-12-10T13:01:41;2.00;99.90
25024;DHT22;13033;50.936;5.334;2022-12-10T13:04:11;2.00;99.90
25024;DHT22;13033;50.936;5.334;2022-12-10T13:06:38;2.20;99.90
25024;DHT22;13033;50.936;5.334;2022-12-10T13:14:54;2.20;99.90
25024;DHT22;13033;50.936;5.334;2022-12-10T13:17:36;2.00;99.90
25024;DHT22;13033;50.936;5.334;2022-12-10T13:20:27;2.10;99.90
25024;DHT22;13033;50.936;5.334;2022-12-10T13:23:02;2.00;99.90
25024;DHT22;13033;50.936;5.334;2022-12-10T13:28:27;2.00;99.90
25024;DHT22;13033;50.936;5.334;2022-12-10T13:33:51;2.10;99.90
25024;DHT22;13033;50.936;5.334;2022-12-10T13:36:26;2.00;99.90
25024;DHT22;13033;50.936;5.334;2022-12-10T13:39:21;2.20;99.90
25024;DHT22;13033;50.936;5.334;2022-12-10T14:06:19;1.80;99.90
25024;DHT22;13033;50.936;5.334;2022-12-10T14:09:03;1.70;99.90
25024;DHT22;13033;50.936;5.334;2022-12-10T14:11:34;1.70;99.90
25024;DHT22;13033;50.936;5.334;2022-12-10T14:14:02;2.00;99.90
25024;DHT22;13033;50.936;5.334;2022-12-10T14:16:31;2.00;99.90
25024;DHT22;13033;50.936;5.334;2022-12-10T14:19:10;1.90;99.90
25024;DHT22;13033;50.936;5.334;2022-12-10T14:21:38;2.00;99.90
25024;DHT22;13033;50.936;5.334;2022-12-10T14:24:26;2.10;99.90
25024;DHT22;13033;50.936;5.334;2022-12-10T14:27:01;2.20;99.90
25024;DHT22;13033;50.936;5.334;2022-12-10T14:29:27;2.30;99.90
25024;DHT22;13033;50.936;5.334;2022-12-10T14:31:53;2.00;99.90
25024;DHT22;13033;50.936;5.334;2022-12-10T14:34:24;1.90;99.90
25024;DHT22;13033;50.936;5.334;2022-12-10T14:36:53;2.00;99.90
25024;DHT22;13033;50.936;5.334;2022-12-10T14:39:28;2.00;99.90
25024;DHT22;13033;50.936;5.334;2022-12-10T14:41:57;1.90;99.90
25024;DHT22;13033;50.936;5.334;2022-12-10T14:44:25;1.90;99.90
25024;DHT22;13033;50.936;5.334;2022-12-10T14:46:51;2.00;99.90
25024;DHT22;13033;50.936;5.334;2022-12-10T14:49:24;1.80;99.90
25024;DHT22;13033;50.936;5.334;2022-12-10T14:51:51;1.90;99.90
25024;DHT22;13033;50.936;5.334;2022-12-10T14:54:29;1.90;99.90
25024;DHT22;13033;50.936;5.334;2022-12-10T14:57:00;2.00;99.90
25024;DHT22;13033;50.936;5.334;2022-12-10T14:59:46;2.00;99.90
25024;DHT22;13033;50.936;5.334;2022-12-10T15:02:36;1.90;99.90
25024;DHT22;13033;50.936;5.334;2022-12-10T15:05:03;1.90;99.90
25024;DHT22;13033;50.936;5.334;2022-12-10T15:07:34;1.90;99.90
25024;DHT22;13033;50.936;5.334;2022-12-10T15:10:08;2.00;99.90
25024;DHT22;13033;50.936;5.334;2022-12-10T15:12:42;2.00;99.90
25024;DHT22;13033;50.936;5.334;2022-12-10T15:15:28;2.00;99.90
25024;DHT22;13033;50.936;5.334;2022-12-10T15:18:04;2.10;99.90
25024;DHT22;13033;50.936;5.334;2022-12-10T15:23:19;2.20;99.90
25024;DHT22;13033;50.936;5.334;2022-12-10T15:25:50;2.00;99.90
25024;DHT22;13033;50.936;5.334;2022-12-10T15:28:42;1.90;99.90
25024;DHT22;13033;50.936;5.334;2022-12-10T15:33:52;1.90;99.90
25024;DHT22;13033;50.936;5.334;2022-12-10T15:39:20;1.80;99.90
25024;DHT22;13033;50.936;5.334;2022-12-10T15:44:41;2.10;99.90
25024;DHT22;13033;50.936;5.334;2022-12-10T15:47:16;2.20;99.90
25024;DHT22;13033;50.936;5.334;2022-12-10T15:49:43;2.10;99.90
25024;DHT22;13033;50.936;5.334;2022-12-10T15:52:16;2.00;99.90
25024;DHT22;13033;50.936;5.334;2022-12-10T15:54:46;2.00;99.90
25024;DHT22;13033;50.936;5.334;2022-12-10T15:57:32;2.00;99.90
25024;DHT22;13033;50.936;5.334;2022-12-10T16:00:00;1.90;99.90
25024;DHT22;13033;50.936;5.334;2022-12-10T16:02:54;1.90;99.90
25024;DHT22;13033;50.936;5.334;2022-12-10T16:05:26;1.80;99.90
25024;DHT22;13033;50.936;5.334;2022-12-10T16:07:55;1.70;99.90
25024;DHT22;13033;50.936;5.334;2022-12-10T16:10:23;1.80;99.90
25024;DHT22;13033;50.936;5.334;2022-12-10T16:15:24;1.80;99.90
25024;DHT22;13033;50.936;5.334;2022-12-10T16:17:51;1.70;99.90
25024;DHT22;13033;50.936;5.334;2022-12-10T16:20:26;1.60;99.90
25024;DHT22;13033;50.936;5.334;2022-12-10T16:22:53;1.70;99.90
25024;DHT22;13033;50.936;5.334;2022-12-10T16:25:20;1.70;99.90
25024;DHT22;13033;50.936;5.334;2022-12-10T16:27:46;1.70;99.90
25024;DHT22;13033;50.936;5.334;2022-12-10T16:30:23;1.80;99.90
25024;DHT22;13033;50.936;5.334;2022-12-10T16:32:48;1.80;99.90
25024;DHT22;13033;50.936;5.334;2022-12-10T16:35:15;1.80;99.90
25024;DHT22;13033;50.936;5.334;2022-12-10T16:37:46;1.70;99.90
25024;DHT22;13033;50.936;5.334;2022-12-10T16:40:13;1.70;99.90
25024;DHT22;13033;50.936;5.334;2022-12-10T16:42:39;1.90;99.90
25024;DHT22;13033;50.936;5.334;2022-12-10T16:47:57;1.90;99.90
25024;DHT22;13033;50.936;5.334;2022-12-10T16:50:24;1.90;99.90
25024;DHT22;13033;50.936;5.334;2022-12-10T16:52:51;2.00;99.90
25024;DHT22;13033;50.936;5.334;2022-12-10T16:55:23;2.10;99.90
25024;DHT22;13033;50.936;5.334;2022-12-10T16:57:49;2.10;99.90
25024;DHT22;13033;50.936;5.334;2022-12-10T17:00:18;2.00;99.90
25024;DHT22;13033;50.936;5.334;2022-12-10T17:02:45;2.10;99.90
25024;DHT22;13033;50.936;5.334;2022-12-10T17:05:16;1.90;99.90
25024;DHT22;13033;50.936;5.334;2022-12-10T17:07:42;2.00;99.90
25024;DHT22;13033;50.936;5.334;2022-12-10T17:10:10;1.90;99.90
25024;DHT22;13033;50.936;5.334;2022-12-10T17:12:36;1.70;99.90
25024;DHT22;13033;50.936;5.334;2022-12-10T17:15:02;1.70;99.90
25024;DHT22;13033;50.936;5.334;2022-12-10T17:17:28;1.70;99.90
25024;DHT22;13033;50.936;5.334;2022-12-10T17:19:54;1.70;99.90
25024;DHT22;13033;50.936;5.334;2022-12-10T17:22:20;1.50;99.90
25024;DHT22;13033;50.936;5.334;2022-12-10T17:24:46;1.50;99.90
25024;DHT22;13033;50.936;5.334;2022-12-10T17:27:16;1.60;99.90
25024;DHT22;13033;50.936;5.334;2022-12-10T17:29:43;1.50;99.90
25024;DHT22;13033;50.936;5.334;2022-12-10T17:32:19;1.50;99.90
25024;DHT22;13033;50.936;5.334;2022-12-10T17:34:45;1.50;99.90
25024;DHT22;13033;50.936;5.334;2022-12-10T17:37:16;1.50;99.90
25024;DHT22;13033;50.936;5.334;2022-12-10T17:39:43;1.50;99.90
25024;DHT22;13033;50.936;5.334;2022-12-10T17:42:09;1.50;99.90
25024;DHT22;13033;50.936;5.334;2022-12-10T17:44:35;1.70;99.90
25024;DHT22;13033;50.936;5.334;2022-12-10T17:47:08;1.50;99.90
25024;DHT22;13033;50.936;5.334;2022-12-10T17:49:38;1.60;99.90
25024;DHT22;13033;50.936;5.334;2022-12-10T17:52:10;1.60;99.90
25024;DHT22;13033;50.936;5.334;2022-12-10T17:54:36;1.60;99.90
25024;DHT22;13033;50.936;5.334;2022-12-10T17:57:02;1.70;99.90
25024;DHT22;13033;50.936;5.334;2022-12-10T17:59:28;1.70;99.90
25024;DHT22;13033;50.936;5.334;2022-12-10T18:01:54;1.50;99.90
25024;DHT22;13033;50.936;5.334;2022-12-10T18:04:20;1.60;99.90
25024;DHT22;13033;50.936;5.334;2022-12-10T18:06:45;1.40;99.90
25024;DHT22;13033;50.936;5.334;2022-12-10T18:09:11;1.30;99.90
25024;DHT22;13033;50.936;5.334;2022-12-10T18:11:37;1.30;99.90
25024;DHT22;13033;50.936;5.334;2022-12-10T18:14:06;1.50;99.90
25024;DHT22;13033;50.936;5.334;2022-12-10T18:16:33;1.60;99.90
25024;DHT22;13033;50.936;5.334;2022-12-10T18:19:04;1.60;99.90
25024;DHT22;13033;50.936;5.334;2022-12-10T18:21:31;1.70;99.90
25024;DHT22;13033;50.936;5.334;2022-12-10T18:23:58;1.80;99.90